createdAt,value
2017-04-29T00:00:00.182Z,1008.21
2017-04-29T00:00:40.774Z,1008.29
2017-04-29T00:01:21.382Z,1008.3
2017-04-29T00:02:02.018Z,1008.27
2017-04-29T00:02:42.681Z,1008.26
2017-04-29T00:03:23.298Z,1008.24
2017-04-29T00:04:03.898Z,1008.24
2017-04-29T00:04:44.461Z,1008.26
2017-04-29T00:05:25.040Z,1008.23
2017-04-29T00:06:05.605Z,1008.24
2017-04-29T00:06:46.221Z,1008.22
2017-04-29T00:07:26.835Z,1008.28
2017-04-29T00:08:07.430Z,1008.25
2017-04-29T00:08:48.082Z,1008.26
2017-04-29T00:09:28.633Z,1008.24
2017-04-29T00:10:09.298Z,1008.23
2017-04-29T00:10:49.898Z,1008.22
2017-04-29T00:11:30.475Z,1008.24
2017-04-29T00:12:11.069Z,1008.27
2017-04-29T00:12:51.674Z,1008.27
2017-04-29T00:13:32.278Z,1008.3
2017-04-29T00:14:12.851Z,1008.29
2017-04-29T00:14:53.453Z,1008.29
2017-04-29T00:15:34.027Z,1008.31
2017-04-29T00:16:14.617Z,1008.35
2017-04-29T00:16:55.325Z,1008.33
2017-04-29T00:17:35.993Z,1008.32
2017-04-29T00:18:16.574Z,1008.36
2017-04-29T00:18:57.142Z,1008.34
2017-04-29T00:19:37.757Z,1008.34
2017-04-29T00:20:18.341Z,1008.33
2017-04-29T00:20:58.945Z,1008.33
2017-04-29T00:21:39.497Z,1008.33
2017-04-29T00:22:20.093Z,1008.35
2017-04-29T00:23:00.705Z,1008.36
2017-04-29T00:23:41.316Z,1008.33
2017-04-29T00:24:21.897Z,1008.41
2017-04-29T00:25:02.445Z,1008.34
2017-04-29T00:25:43.016Z,1008.34
2017-04-29T00:26:23.593Z,1008.34
2017-04-29T00:27:04.203Z,1008.36
2017-04-29T00:27:44.779Z,1008.35
2017-04-29T00:28:25.456Z,1008.36
2017-04-29T00:29:06.022Z,1008.33
2017-04-29T00:29:46.596Z,1008.36
2017-04-29T00:30:27.170Z,1008.41
2017-04-29T00:31:07.755Z,1008.39
2017-04-29T00:31:48.327Z,1008.43
2017-04-29T00:32:28.921Z,1008.4
2017-04-29T00:33:09.491Z,1008.43
2017-04-29T00:33:50.084Z,1008.48
2017-04-29T00:34:30.664Z,1008.43
2017-04-29T00:35:11.222Z,1008.4
2017-04-29T00:35:51.800Z,1008.47
2017-04-29T00:36:32.374Z,1008.43
2017-04-29T00:37:12.967Z,1008.46
2017-04-29T00:37:53.537Z,1008.43
2017-04-29T00:38:34.103Z,1008.45
2017-04-29T00:39:14.687Z,1008.42
2017-04-29T00:39:55.270Z,1008.45
2017-04-29T00:40:35.840Z,1008.46
2017-04-29T00:41:16.446Z,1008.54
2017-04-29T00:41:57.047Z,1008.45
2017-04-29T00:42:37.619Z,1008.46
2017-04-29T00:43:18.207Z,1008.48
2017-04-29T00:43:58.782Z,1008.48
2017-04-29T00:44:39.358Z,1008.47
2017-04-29T00:45:19.932Z,1008.48
2017-04-29T00:46:00.508Z,1008.49
2017-04-29T00:46:41.100Z,1008.51
2017-04-29T00:47:21.691Z,1008.48
2017-04-29T00:48:02.262Z,1008.5
2017-04-29T00:48:42.859Z,1008.53
2017-04-29T00:49:23.436Z,1008.53
2017-04-29T00:50:04.025Z,1008.55
2017-04-29T00:50:44.601Z,1008.5
2017-04-29T00:51:25.175Z,1008.57
2017-04-29T00:52:05.766Z,1008.53
2017-04-29T00:52:46.367Z,1008.54
2017-04-29T00:53:26.949Z,1008.53
2017-04-29T00:54:07.640Z,1008.57
2017-04-29T00:54:48.237Z,1008.54
2017-04-29T00:55:28.829Z,1008.62
2017-04-29T00:56:09.414Z,1008.59
2017-04-29T00:56:50.008Z,1008.67
2017-04-29T00:57:30.593Z,1008.68
2017-04-29T00:58:11.226Z,1008.65
2017-04-29T00:58:58.362Z,1008.67
2017-04-29T00:59:38.954Z,1008.72
2017-04-29T01:00:19.529Z,1008.66
2017-04-29T01:01:00.151Z,1008.73
2017-04-29T01:01:40.800Z,1008.75
2017-04-29T01:02:21.398Z,1008.72
2017-04-29T01:03:02.001Z,1008.75
2017-04-29T01:03:42.634Z,1008.72
2017-04-29T01:04:23.235Z,1008.73
2017-04-29T01:05:03.860Z,1008.74
2017-04-29T01:05:44.483Z,1008.75
2017-04-29T01:06:25.078Z,1008.74
2017-04-29T01:07:05.684Z,1008.75
2017-04-29T01:07:46.324Z,1008.78
2017-04-29T01:08:26.913Z,1008.79
2017-04-29T01:09:07.503Z,1008.81
2017-04-29T01:09:48.146Z,1008.83
2017-04-29T01:10:28.733Z,1008.81
2017-04-29T01:11:09.339Z,1008.78
2017-04-29T01:11:49.983Z,1008.78
2017-04-29T01:12:30.558Z,1008.76
2017-04-29T01:13:11.180Z,1008.78
2017-04-29T01:13:51.797Z,1008.82
2017-04-29T01:14:32.417Z,1008.83
2017-04-29T01:15:13.024Z,1008.84
2017-04-29T01:15:53.617Z,1008.8
2017-04-29T01:16:34.200Z,1008.82
2017-04-29T01:17:14.784Z,1008.84
2017-04-29T01:17:55.355Z,1008.84
2017-04-29T01:18:35.957Z,1008.85
2017-04-29T01:19:16.544Z,1008.88
2017-04-29T01:19:57.155Z,1008.88
2017-04-29T01:20:37.742Z,1008.82
2017-04-29T01:21:18.322Z,1008.91
2017-04-29T01:21:58.906Z,1008.88
2017-04-29T01:22:39.478Z,1008.86
2017-04-29T01:23:20.075Z,1008.87
2017-04-29T01:24:00.704Z,1008.84
2017-04-29T01:24:41.336Z,1008.86
2017-04-29T01:25:21.917Z,1008.87
2017-04-29T01:26:02.509Z,1008.92
2017-04-29T01:26:43.118Z,1008.92
2017-04-29T01:27:23.699Z,1008.96
2017-04-29T01:28:04.285Z,1008.94
2017-04-29T01:28:44.864Z,1008.91
2017-04-29T01:29:25.455Z,1008.93
2017-04-29T01:30:06.042Z,1008.98
2017-04-29T01:30:46.618Z,1008.95
2017-04-29T01:31:27.205Z,1008.97
2017-04-29T01:32:07.787Z,1008.96
2017-04-29T01:32:48.376Z,1008.99
2017-04-29T01:33:28.945Z,1008.98
2017-04-29T01:34:09.534Z,1009.01
2017-04-29T01:34:50.154Z,1008.97
2017-04-29T01:35:30.747Z,1009.01
2017-04-29T01:36:11.329Z,1008.98
2017-04-29T01:36:51.931Z,1008.96
2017-04-29T01:37:32.544Z,1009.01
2017-04-29T01:38:13.143Z,1009.02
2017-04-29T01:38:53.716Z,1008.98
2017-04-29T01:39:34.289Z,1008.96
2017-04-29T01:40:14.862Z,1008.95
2017-04-29T01:40:55.477Z,1008.93
2017-04-29T01:41:36.075Z,1008.95
2017-04-29T01:42:16.685Z,1008.96
2017-04-29T01:42:57.263Z,1008.95
2017-04-29T01:43:37.850Z,1008.98
2017-04-29T01:44:18.433Z,1008.97
2017-04-29T01:44:59.010Z,1008.93
2017-04-29T01:45:39.620Z,1008.91
2017-04-29T01:46:20.202Z,1008.9
2017-04-29T01:47:00.782Z,1008.91
2017-04-29T01:47:41.367Z,1008.92
2017-04-29T01:48:21.956Z,1008.89
2017-04-29T01:49:02.547Z,1008.84
2017-04-29T01:49:43.133Z,1008.88
2017-04-29T01:50:23.714Z,1008.85
2017-04-29T01:51:04.295Z,1008.85
2017-04-29T01:51:44.875Z,1008.84
2017-04-29T01:52:25.504Z,1008.83
2017-04-29T01:53:06.084Z,1008.83
2017-04-29T01:53:46.669Z,1008.84
2017-04-29T01:54:27.250Z,1008.86
2017-04-29T01:55:07.826Z,1008.83
2017-04-29T01:55:48.397Z,1008.86
2017-04-29T01:56:28.973Z,1008.82
2017-04-29T01:57:09.558Z,1008.87
2017-04-29T01:57:50.139Z,1008.89
2017-04-29T01:58:30.740Z,1008.87
2017-04-29T01:59:11.337Z,1008.83
2017-04-29T01:59:51.919Z,1008.86
2017-04-29T02:00:32.526Z,1008.87
2017-04-29T02:01:13.111Z,1008.82
2017-04-29T02:01:53.678Z,1008.87
2017-04-29T02:02:34.249Z,1008.84
2017-04-29T02:03:14.836Z,1008.83
2017-04-29T02:03:55.408Z,1008.79
2017-04-29T02:04:35.974Z,1008.82
2017-04-29T02:05:16.585Z,1008.82
2017-04-29T02:05:57.185Z,1008.82
2017-04-29T02:06:37.802Z,1008.8
2017-04-29T02:07:18.402Z,1008.8
2017-04-29T02:07:58.989Z,1008.77
2017-04-29T02:08:39.544Z,1008.78
2017-04-29T02:09:20.125Z,1008.78
2017-04-29T02:10:00.703Z,1008.81
2017-04-29T02:10:41.295Z,1008.78
2017-04-29T02:11:21.879Z,1008.78
2017-04-29T02:12:02.473Z,1008.75
2017-04-29T02:12:43.054Z,1008.74
2017-04-29T02:13:23.629Z,1008.72
2017-04-29T02:14:04.208Z,1008.69
2017-04-29T02:14:44.822Z,1008.7
2017-04-29T02:15:25.402Z,1008.68
2017-04-29T02:16:05.983Z,1008.71
2017-04-29T02:16:46.588Z,1008.66
2017-04-29T02:17:27.175Z,1008.63
2017-04-29T02:18:07.752Z,1008.72
2017-04-29T02:18:48.340Z,1008.66
2017-04-29T02:19:28.988Z,1008.69
2017-04-29T02:20:09.576Z,1008.72
2017-04-29T02:20:50.154Z,1008.7
2017-04-29T02:21:30.725Z,1008.68
2017-04-29T02:22:11.300Z,1008.71
2017-04-29T02:22:51.886Z,1008.75
2017-04-29T02:23:32.465Z,1008.79
2017-04-29T02:24:13.052Z,1008.76
2017-04-29T02:24:53.633Z,1008.77
2017-04-29T02:25:34.232Z,1008.81
2017-04-29T02:26:14.810Z,1008.76
2017-04-29T02:26:55.408Z,1008.78
2017-04-29T02:27:36.039Z,1008.75
2017-04-29T02:28:16.665Z,1008.78
2017-04-29T02:28:57.256Z,1008.75
2017-04-29T02:29:37.841Z,1008.8
2017-04-29T02:30:18.437Z,1008.82
2017-04-29T02:30:59.015Z,1008.76
2017-04-29T02:31:39.647Z,1008.8
2017-04-29T02:32:20.216Z,1008.82
2017-04-29T02:33:00.825Z,1008.79
2017-04-29T02:33:41.847Z,1008.75
2017-04-29T02:34:22.693Z,1008.75
2017-04-29T02:35:03.588Z,1008.79
2017-04-29T02:35:44.229Z,1008.77
2017-04-29T02:36:24.811Z,1008.75
2017-04-29T02:37:05.455Z,1008.74
2017-04-29T02:37:46.024Z,1008.81
2017-04-29T02:38:26.589Z,1008.75
2017-04-29T02:39:07.160Z,1008.75
2017-04-29T02:39:47.740Z,1008.78
2017-04-29T02:40:28.321Z,1008.74
2017-04-29T02:41:08.912Z,1008.78
2017-04-29T02:41:49.493Z,1008.74
2017-04-29T02:42:30.083Z,1008.71
2017-04-29T02:43:10.667Z,1008.74
2017-04-29T02:43:51.245Z,1008.79
2017-04-29T02:44:31.827Z,1008.8
2017-04-29T02:45:12.425Z,1008.81
2017-04-29T02:45:52.987Z,1008.84
2017-04-29T02:46:33.584Z,1008.74
2017-04-29T02:47:14.155Z,1008.76
2017-04-29T02:47:54.750Z,1008.82
2017-04-29T02:48:35.349Z,1008.79
2017-04-29T02:49:15.939Z,1008.82
2017-04-29T02:49:56.512Z,1008.82
2017-04-29T02:50:37.119Z,1008.84
2017-04-29T02:51:17.685Z,1008.81
2017-04-29T02:51:58.278Z,1008.78
2017-04-29T02:52:38.870Z,1008.78
2017-04-29T02:53:19.446Z,1008.82
2017-04-29T02:54:00.065Z,1008.8
2017-04-29T02:54:40.672Z,1008.82
2017-04-29T02:55:21.276Z,1008.79
2017-04-29T02:56:01.889Z,1008.81
2017-04-29T02:56:42.517Z,1008.78
2017-04-29T02:57:23.116Z,1008.79
2017-04-29T02:58:03.683Z,1008.81
2017-04-29T02:58:44.275Z,1008.79
2017-04-29T02:59:24.919Z,1008.8
2017-04-29T03:00:05.544Z,1008.82
2017-04-29T03:00:46.143Z,1008.82
2017-04-29T03:01:26.775Z,1008.81
2017-04-29T03:02:07.364Z,1008.84
2017-04-29T03:02:47.965Z,1008.86
2017-04-29T03:03:28.575Z,1008.85
2017-04-29T03:04:09.193Z,1008.89
2017-04-29T03:04:49.788Z,1008.87
2017-04-29T03:05:30.413Z,1008.91
2017-04-29T03:06:11.006Z,1008.93
2017-04-29T03:06:51.604Z,1008.88
2017-04-29T03:07:32.192Z,1008.9
2017-04-29T03:08:12.793Z,1008.91
2017-04-29T03:08:53.415Z,1008.93
2017-04-29T03:09:33.989Z,1008.93
2017-04-29T03:10:14.603Z,1008.91
2017-04-29T03:10:55.207Z,1008.96
2017-04-29T03:11:35.832Z,1008.94
2017-04-29T03:12:16.403Z,1008.97
2017-04-29T03:12:57.059Z,1008.95
2017-04-29T03:13:37.651Z,1008.99
2017-04-29T03:14:18.263Z,1009.01
2017-04-29T03:14:58.893Z,1009.02
2017-04-29T03:15:39.484Z,1009.01
2017-04-29T03:16:20.077Z,1008.99
2017-04-29T03:17:00.651Z,1009.02
2017-04-29T03:17:41.301Z,1009
2017-04-29T03:18:21.910Z,1008.99
2017-04-29T03:19:02.572Z,1009.03
2017-04-29T03:19:43.175Z,1009
2017-04-29T03:20:23.785Z,1009.03
2017-04-29T03:21:04.404Z,1009.02
2017-04-29T03:21:45.008Z,1009.05
2017-04-29T03:22:25.586Z,1009.02
2017-04-29T03:23:06.205Z,1009.05
2017-04-29T03:23:46.835Z,1009.04
2017-04-29T03:24:27.468Z,1009.11
2017-04-29T03:25:08.081Z,1009.07
2017-04-29T03:25:48.715Z,1009.08
2017-04-29T03:26:29.326Z,1009.08
2017-04-29T03:27:09.949Z,1009.09
2017-04-29T03:27:50.560Z,1009.05
2017-04-29T03:28:31.148Z,1009.02
2017-04-29T03:29:11.744Z,1009.03
2017-04-29T03:29:52.321Z,1009.06
2017-04-29T03:30:32.909Z,1009.04
2017-04-29T03:31:13.496Z,1009.07
2017-04-29T03:31:54.090Z,1009.09
2017-04-29T03:32:34.706Z,1009.11
2017-04-29T03:33:15.286Z,1009.06
2017-04-29T03:33:55.890Z,1009.07
2017-04-29T03:34:36.485Z,1009.07
2017-04-29T03:35:17.076Z,1009.1
2017-04-29T03:35:57.670Z,1009.1
2017-04-29T03:36:38.295Z,1009.09
2017-04-29T03:37:18.929Z,1009.11
2017-04-29T03:37:59.546Z,1009.14
2017-04-29T03:38:40.190Z,1009.14
2017-04-29T03:39:20.789Z,1009.12
2017-04-29T03:40:01.421Z,1009.15
2017-04-29T03:40:42.056Z,1009.16
2017-04-29T03:41:22.671Z,1009.14
2017-04-29T03:42:03.275Z,1009.11
2017-04-29T03:42:43.865Z,1009.14
2017-04-29T03:43:24.502Z,1009.12
2017-04-29T03:44:05.117Z,1009.16
2017-04-29T03:44:45.737Z,1009.16
2017-04-29T03:45:26.372Z,1009.14
2017-04-29T03:46:07.004Z,1009.16
2017-04-29T03:46:47.598Z,1009.14
2017-04-29T03:47:28.214Z,1009.18
2017-04-29T03:48:08.837Z,1009.2
2017-04-29T03:48:49.447Z,1009.16
2017-04-29T03:49:30.032Z,1009.19
2017-04-29T03:50:10.611Z,1009.15
2017-04-29T03:50:51.239Z,1009.18
2017-04-29T03:51:31.865Z,1009.19
2017-04-29T03:52:12.506Z,1009.2
2017-04-29T03:52:53.123Z,1009.22
2017-04-29T03:53:33.706Z,1009.21
2017-04-29T03:54:14.332Z,1009.25
2017-04-29T03:54:54.938Z,1009.25
2017-04-29T03:55:35.553Z,1009.18
2017-04-29T03:56:16.213Z,1009.18
2017-04-29T03:56:56.895Z,1009.23
2017-04-29T03:57:37.511Z,1009.23
2017-04-29T03:58:18.117Z,1009.29
2017-04-29T03:58:58.766Z,1009.29
2017-04-29T03:59:50.164Z,1009.28
2017-04-29T04:00:30.790Z,1009.3
2017-04-29T04:01:11.368Z,1009.28
2017-04-29T04:01:51.998Z,1009.3
2017-04-29T04:02:32.599Z,1009.36
2017-04-29T04:03:13.212Z,1009.32
2017-04-29T04:03:53.808Z,1009.3
2017-04-29T04:04:34.421Z,1009.38
2017-04-29T04:05:15.046Z,1009.36
2017-04-29T04:05:55.674Z,1009.31
2017-04-29T04:06:36.266Z,1009.38
2017-04-29T04:07:16.890Z,1009.37
2017-04-29T04:07:57.482Z,1009.38
2017-04-29T04:08:38.092Z,1009.38
2017-04-29T04:09:18.678Z,1009.39
2017-04-29T04:09:59.307Z,1009.39
2017-04-29T04:10:39.923Z,1009.4
2017-04-29T04:11:20.510Z,1009.42
2017-04-29T04:12:01.131Z,1009.39
2017-04-29T04:12:41.731Z,1009.43
2017-04-29T04:13:22.374Z,1009.43
2017-04-29T04:14:03.081Z,1009.45
2017-04-29T04:14:43.671Z,1009.43
2017-04-29T04:15:24.250Z,1009.41
2017-04-29T04:16:04.878Z,1009.4
2017-04-29T04:16:45.492Z,1009.41
2017-04-29T04:17:26.105Z,1009.43
2017-04-29T04:18:06.689Z,1009.46
2017-04-29T04:18:47.296Z,1009.43
2017-04-29T04:19:27.898Z,1009.45
2017-04-29T04:20:08.526Z,1009.5
2017-04-29T04:20:49.132Z,1009.48
2017-04-29T04:21:29.773Z,1009.48
2017-04-29T04:22:10.360Z,1009.49
2017-04-29T04:22:50.960Z,1009.43
2017-04-29T04:23:31.615Z,1009.47
2017-04-29T04:24:12.215Z,1009.49
2017-04-29T04:24:52.826Z,1009.44
2017-04-29T04:25:33.451Z,1009.43
2017-04-29T04:26:14.089Z,1009.45
2017-04-29T04:26:54.695Z,1009.48
2017-04-29T04:27:35.316Z,1009.47
2017-04-29T04:28:16.000Z,1009.41
2017-04-29T04:28:56.580Z,1009.4
2017-04-29T04:29:37.191Z,1009.38
2017-04-29T04:30:17.842Z,1009.38
2017-04-29T04:30:58.503Z,1009.42
2017-04-29T04:31:39.111Z,1009.4
2017-04-29T04:32:19.717Z,1009.4
2017-04-29T04:33:00.333Z,1009.41
2017-04-29T04:33:40.986Z,1009.44
2017-04-29T04:34:21.636Z,1009.49
2017-04-29T04:35:02.225Z,1009.5
2017-04-29T04:35:42.891Z,1009.51
2017-04-29T04:36:23.488Z,1009.5
2017-04-29T04:37:04.119Z,1009.53
2017-04-29T04:37:44.698Z,1009.49
2017-04-29T04:38:25.296Z,1009.53
2017-04-29T04:39:05.908Z,1009.53
2017-04-29T04:39:46.520Z,1009.59
2017-04-29T04:40:27.167Z,1009.58
2017-04-29T04:41:07.811Z,1009.58
2017-04-29T04:41:48.421Z,1009.55
2017-04-29T04:42:29.054Z,1009.59
2017-04-29T04:43:09.718Z,1009.62
2017-04-29T04:43:50.303Z,1009.58
2017-04-29T04:44:30.923Z,1009.64
2017-04-29T04:45:11.621Z,1009.64
2017-04-29T04:45:52.358Z,1009.62
2017-04-29T04:46:33.013Z,1009.62
2017-04-29T04:47:13.688Z,1009.59
2017-04-29T04:47:54.400Z,1009.6
2017-04-29T04:48:35.177Z,1009.63
2017-04-29T04:49:15.786Z,1009.6
2017-04-29T04:49:56.407Z,1009.6
2017-04-29T04:50:37.060Z,1009.61
2017-04-29T04:51:17.681Z,1009.6
2017-04-29T04:51:58.465Z,1009.61
2017-04-29T04:52:39.356Z,1009.62
2017-04-29T04:53:20.045Z,1009.59
2017-04-29T04:54:00.889Z,1009.57
2017-04-29T04:54:41.503Z,1009.57
2017-04-29T04:55:22.104Z,1009.62
2017-04-29T04:56:02.823Z,1009.55
2017-04-29T04:56:43.424Z,1009.58
2017-04-29T04:57:24.007Z,1009.58
2017-04-29T04:58:04.619Z,1009.58
2017-04-29T04:58:45.200Z,1009.52
2017-04-29T04:59:25.787Z,1009.54
2017-04-29T05:00:06.356Z,1009.51
2017-04-29T05:00:46.931Z,1009.57
2017-04-29T05:01:27.503Z,1009.54
2017-04-29T05:02:08.118Z,1009.53
2017-04-29T05:02:48.708Z,1009.55
2017-04-29T05:03:29.284Z,1009.53
2017-04-29T05:04:09.871Z,1009.54
2017-04-29T05:04:50.498Z,1009.61
2017-04-29T05:05:31.090Z,1009.61
2017-04-29T05:06:11.669Z,1009.57
2017-04-29T05:06:52.357Z,1009.58
2017-04-29T05:07:32.951Z,1009.64
2017-04-29T05:08:13.620Z,1009.61
2017-04-29T05:08:54.234Z,1009.64
2017-04-29T05:09:34.892Z,1009.66
2017-04-29T05:10:15.528Z,1009.66
2017-04-29T05:10:56.126Z,1009.69
2017-04-29T05:11:36.792Z,1009.69
2017-04-29T05:12:17.409Z,1009.7
2017-04-29T05:12:58.019Z,1009.7
2017-04-29T05:13:38.612Z,1009.68
2017-04-29T05:14:19.231Z,1009.7
2017-04-29T05:14:59.816Z,1009.74
2017-04-29T05:15:40.428Z,1009.73
2017-04-29T05:16:21.052Z,1009.76
2017-04-29T05:17:01.631Z,1009.78
2017-04-29T05:17:42.253Z,1009.8
2017-04-29T05:18:22.869Z,1009.82
2017-04-29T05:19:03.449Z,1009.82
2017-04-29T05:19:44.077Z,1009.83
2017-04-29T05:20:24.667Z,1009.89
2017-04-29T05:21:05.279Z,1009.9
2017-04-29T05:21:45.841Z,1009.94
2017-04-29T05:22:26.435Z,1009.95
2017-04-29T05:23:07.073Z,1009.96
2017-04-29T05:23:47.641Z,1009.96
2017-04-29T05:24:28.264Z,1009.96
2017-04-29T05:25:08.845Z,1010.01
2017-04-29T05:25:49.433Z,1010.04
2017-04-29T05:26:30.103Z,1010.06
2017-04-29T05:27:10.719Z,1010.08
2017-04-29T05:27:51.295Z,1010.12
2017-04-29T05:28:31.867Z,1010.11
2017-04-29T05:29:12.435Z,1010.14
2017-04-29T05:29:53.059Z,1010.14
2017-04-29T05:30:33.637Z,1010.09
2017-04-29T05:31:14.213Z,1010.14
2017-04-29T05:31:54.811Z,1010.12
2017-04-29T05:32:35.575Z,1010.08
2017-04-29T05:33:16.216Z,1010.15
2017-04-29T05:33:56.810Z,1010.17
2017-04-29T05:34:37.461Z,1010.19
2017-04-29T05:35:18.120Z,1010.17
2017-04-29T05:35:58.905Z,1010.18
2017-04-29T05:36:39.596Z,1010.17
2017-04-29T05:37:20.210Z,1010.18
2017-04-29T05:38:00.812Z,1010.16
2017-04-29T05:38:41.456Z,1010.19
2017-04-29T05:39:22.026Z,1010.21
2017-04-29T05:40:03.356Z,1010.27
2017-04-29T05:40:44.198Z,1010.23
2017-04-29T05:41:24.917Z,1010.21
2017-04-29T05:42:06.313Z,1010.21
2017-04-29T05:42:46.959Z,1010.2
2017-04-29T05:43:27.564Z,1010.18
2017-04-29T05:44:08.200Z,1010.23
2017-04-29T05:44:48.791Z,1010.18
2017-04-29T05:45:29.402Z,1010.14
2017-04-29T05:46:10.012Z,1010.18
2017-04-29T05:46:50.558Z,1010.18
2017-04-29T05:47:31.142Z,1010.16
2017-04-29T05:48:11.724Z,1010.22
2017-04-29T05:48:52.303Z,1010.17
2017-04-29T05:49:32.933Z,1010.15
2017-04-29T05:50:13.521Z,1010.13
2017-04-29T05:50:54.691Z,1010.14
2017-04-29T05:51:35.295Z,1010.12
2017-04-29T05:52:15.892Z,1010.14
2017-04-29T05:52:56.458Z,1010.17
2017-04-29T05:53:37.052Z,1010.14
2017-04-29T05:54:17.687Z,1010.15
2017-04-29T05:54:58.284Z,1010.15
2017-04-29T05:55:38.869Z,1010.16
2017-04-29T05:56:19.447Z,1010.15
2017-04-29T05:57:00.051Z,1010.16
2017-04-29T05:57:40.655Z,1010.15
2017-04-29T05:58:21.234Z,1010.17
2017-04-29T05:59:01.830Z,1010.19
2017-04-29T05:59:42.406Z,1010.23
2017-04-29T06:00:22.966Z,1010.2
2017-04-29T06:01:03.541Z,1010.22
2017-04-29T06:01:44.128Z,1010.21
2017-04-29T06:02:24.697Z,1010.23
2017-04-29T06:03:05.298Z,1010.25
2017-04-29T06:03:45.905Z,1010.24
2017-04-29T06:04:26.527Z,1010.26
2017-04-29T06:05:07.109Z,1010.3
2017-04-29T06:05:47.726Z,1010.29
2017-04-29T06:06:28.309Z,1010.31
2017-04-29T06:07:08.886Z,1010.28
2017-04-29T06:07:49.474Z,1010.36
2017-04-29T06:08:30.065Z,1010.34
2017-04-29T06:09:10.630Z,1010.33
2017-04-29T06:09:51.207Z,1010.36
2017-04-29T06:10:31.778Z,1010.4
2017-04-29T06:11:12.346Z,1010.43
2017-04-29T06:11:52.933Z,1010.44
2017-04-29T06:12:33.523Z,1010.4
2017-04-29T06:13:14.101Z,1010.46
2017-04-29T06:13:54.691Z,1010.44
2017-04-29T06:14:35.266Z,1010.46
2017-04-29T06:15:15.843Z,1010.41
2017-04-29T06:15:56.421Z,1010.43
2017-04-29T06:16:36.996Z,1010.42
2017-04-29T06:17:17.576Z,1010.42
2017-04-29T06:17:59.021Z,1010.42
2017-04-29T06:18:39.599Z,1010.43
2017-04-29T06:19:20.181Z,1010.42
2017-04-29T06:20:00.775Z,1010.43
2017-04-29T06:20:41.390Z,1010.44
2017-04-29T06:21:21.979Z,1010.45
2017-04-29T06:22:02.597Z,1010.45
2017-04-29T06:22:43.179Z,1010.39
2017-04-29T06:23:23.771Z,1010.46
2017-04-29T06:24:04.342Z,1010.41
2017-04-29T06:24:44.938Z,1010.41
2017-04-29T06:25:25.514Z,1010.41
2017-04-29T06:26:06.116Z,1010.45
2017-04-29T06:26:46.747Z,1010.45
2017-04-29T06:27:27.315Z,1010.43
2017-04-29T06:28:08.011Z,1010.44
2017-04-29T06:28:48.598Z,1010.47
2017-04-29T06:29:29.175Z,1010.45
2017-04-29T06:30:09.760Z,1010.45
2017-04-29T06:30:50.524Z,1010.46
2017-04-29T06:31:31.421Z,1010.51
2017-04-29T06:32:12.036Z,1010.51
2017-04-29T06:32:52.731Z,1010.51
2017-04-29T06:33:33.723Z,1010.5
2017-04-29T06:34:14.310Z,1010.52
2017-04-29T06:34:55.041Z,1010.52
2017-04-29T06:35:35.627Z,1010.56
2017-04-29T06:36:16.662Z,1010.61
2017-04-29T06:36:57.943Z,1010.63
2017-04-29T06:37:38.544Z,1010.62
2017-04-29T06:38:19.139Z,1010.63
2017-04-29T06:38:59.747Z,1010.6
2017-04-29T06:39:40.331Z,1010.57
2017-04-29T06:40:21.013Z,1010.58
2017-04-29T06:41:01.614Z,1010.61
2017-04-29T06:41:42.206Z,1010.63
2017-04-29T06:42:22.880Z,1010.66
2017-04-29T06:43:03.469Z,1010.66
2017-04-29T06:43:44.066Z,1010.66
2017-04-29T06:44:24.661Z,1010.66
2017-04-29T06:45:05.241Z,1010.62
2017-04-29T06:45:45.839Z,1010.63
2017-04-29T06:46:26.427Z,1010.73
2017-04-29T06:47:07.009Z,1010.71
2017-04-29T06:47:47.608Z,1010.71
2017-04-29T06:48:28.194Z,1010.72
2017-04-29T06:49:08.772Z,1010.78
2017-04-29T06:49:49.398Z,1010.86
2017-04-29T06:50:29.958Z,1010.7
2017-04-29T06:51:10.587Z,1010.72
2017-04-29T06:51:51.178Z,1010.76
2017-04-29T06:52:31.760Z,1010.75
2017-04-29T06:53:12.349Z,1010.72
2017-04-29T06:53:52.919Z,1010.72
2017-04-29T06:54:33.533Z,1010.76
2017-04-29T06:55:14.115Z,1010.72
2017-04-29T06:55:54.705Z,1010.73
2017-04-29T06:56:35.301Z,1010.74
2017-04-29T06:57:15.864Z,1010.74
2017-04-29T06:57:56.445Z,1010.73
2017-04-29T06:58:37.069Z,1010.79
2017-04-29T06:59:17.666Z,1010.97
2017-04-29T06:59:58.245Z,1010.94
2017-04-29T07:00:38.933Z,1010.92
2017-04-29T07:01:19.511Z,1010.98
2017-04-29T07:02:00.130Z,1010.92
2017-04-29T07:02:40.761Z,1011
2017-04-29T07:03:21.384Z,1011.01
2017-04-29T07:04:01.956Z,1011
2017-04-29T07:04:42.536Z,1010.96
2017-04-29T07:05:23.162Z,1010.98
2017-04-29T07:06:03.751Z,1011.02
2017-04-29T07:06:44.346Z,1011.02
2017-04-29T07:07:24.919Z,1011.04
2017-04-29T07:08:05.503Z,1011.01
2017-04-29T07:08:46.089Z,1011.04
2017-04-29T07:09:26.715Z,1011
2017-04-29T07:10:07.306Z,1011.08
2017-04-29T07:10:47.886Z,1010.94
2017-04-29T07:11:28.482Z,1011.07
2017-04-29T07:12:09.107Z,1011.03
2017-04-29T07:12:49.683Z,1010.91
2017-04-29T07:13:30.259Z,1010.92
2017-04-29T07:14:10.878Z,1011.07
2017-04-29T07:14:51.476Z,1011.08
2017-04-29T07:15:32.138Z,1011.02
2017-04-29T07:16:12.786Z,1011.11
2017-04-29T07:16:53.391Z,1011.11
2017-04-29T07:17:33.986Z,1011.1
2017-04-29T07:18:14.573Z,1011.07
2017-04-29T07:18:55.165Z,1011.11
2017-04-29T07:19:35.854Z,1011.13
2017-04-29T07:20:16.462Z,1011.08
2017-04-29T07:20:57.115Z,1011.11
2017-04-29T07:21:38.038Z,1011.06
2017-04-29T07:22:18.609Z,1011.04
2017-04-29T07:22:59.239Z,1011.02
2017-04-29T07:23:39.880Z,1010.99
2017-04-29T07:24:20.497Z,1011.03
2017-04-29T07:25:01.079Z,1010.97
2017-04-29T07:25:41.679Z,1010.97
2017-04-29T07:26:22.270Z,1010.96
2017-04-29T07:27:02.860Z,1011.11
2017-04-29T07:27:43.452Z,1011.14
2017-04-29T07:28:24.352Z,1011.11
2017-04-29T07:29:05.539Z,1011.17
2017-04-29T07:29:46.621Z,1011.14
2017-04-29T07:30:27.217Z,1011.16
2017-04-29T07:31:07.835Z,1011.18
2017-04-29T07:31:48.494Z,1011.24
2017-04-29T07:32:29.214Z,1011.22
2017-04-29T07:33:09.877Z,1011.04
2017-04-29T07:33:50.489Z,1011.17
2017-04-29T07:34:31.112Z,1011.23
2017-04-29T07:35:11.691Z,1011.14
2017-04-29T07:35:52.321Z,1011.26
2017-04-29T07:36:32.921Z,1011.02
2017-04-29T07:37:13.517Z,1011.26
2017-04-29T07:37:54.168Z,1011.09
2017-04-29T07:38:34.826Z,1011.14
2017-04-29T07:39:15.441Z,1011.11
2017-04-29T07:39:56.151Z,1011.15
2017-04-29T07:40:36.771Z,1011.13
2017-04-29T07:41:17.414Z,1011.1
2017-04-29T07:41:58.135Z,1011.25
2017-04-29T07:42:38.725Z,1011.1
2017-04-29T07:43:19.309Z,1011.14
2017-04-29T07:43:59.960Z,1011.15
2017-04-29T07:44:40.606Z,1011.17
2017-04-29T07:45:21.207Z,1011.2
2017-04-29T07:46:01.841Z,1011.11
2017-04-29T07:46:42.440Z,1011.19
2017-04-29T07:47:23.082Z,1011.19
2017-04-29T07:48:03.730Z,1011.2
2017-04-29T07:48:44.324Z,1011.15
2017-04-29T07:49:24.910Z,1011.16
2017-04-29T07:50:05.508Z,1011.19
2017-04-29T07:50:46.083Z,1011.18
2017-04-29T07:51:26.680Z,1011.07
2017-04-29T07:52:07.291Z,1011.13
2017-04-29T07:52:47.872Z,1011.31
2017-04-29T07:53:28.457Z,1011.16
2017-04-29T07:54:09.068Z,1011.32
2017-04-29T07:54:49.705Z,1011.31
2017-04-29T07:55:30.404Z,1011.26
2017-04-29T07:56:11.004Z,1011.25
2017-04-29T07:56:51.629Z,1011.24
2017-04-29T07:57:32.242Z,1011.16
2017-04-29T07:58:13.480Z,1011.23
2017-04-29T07:58:54.091Z,1011.21
2017-04-29T07:59:34.790Z,1011.21
2017-04-29T08:00:15.406Z,1011.22
2017-04-29T08:00:55.991Z,1011.23
2017-04-29T08:01:36.587Z,1011.21
2017-04-29T08:02:17.197Z,1011.25
2017-04-29T08:02:57.802Z,1011.18
2017-04-29T08:03:38.430Z,1011.2
2017-04-29T08:04:19.073Z,1011.29
2017-04-29T08:04:59.672Z,1011.22
2017-04-29T08:05:40.253Z,1011.21
2017-04-29T08:06:20.850Z,1011.23
2017-04-29T08:07:01.447Z,1011.21
2017-04-29T08:07:42.064Z,1011.2
2017-04-29T08:08:22.680Z,1011.2
2017-04-29T08:09:03.273Z,1011.22
2017-04-29T08:09:43.941Z,1011.19
2017-04-29T08:10:24.487Z,1011.17
2017-04-29T08:11:05.108Z,1011.22
2017-04-29T08:11:45.713Z,1011.2
2017-04-29T08:12:26.350Z,1011.22
2017-04-29T08:13:06.936Z,1011.22